sensor_id;sensor_type;location;lat;lon;timestamp;P1;durP1;ratioP1;P2;durP2;ratioP2
45842;SDS011;31563;51.744;8.252;2023-08-20T00:02:27;9.98;;;9.18;;
45842;SDS011;31563;51.744;8.252;2023-08-20T00:04:59;16.83;;;15.13;;
45842;SDS011;31563;51.744;8.252;2023-08-20T00:07:30;19.45;;;17.65;;
45842;SDS011;31563;51.744;8.252;2023-08-20T00:09:58;19.85;;;18.15;;
45842;SDS011;31563;51.744;8.252;2023-08-20T00:12:26;20.13;;;18.17;;
45842;SDS011;31563;51.744;8.252;2023-08-20T00:14:55;15.55;;;14.13;;
45842;SDS011;31563;51.744;8.252;2023-08-20T00:17:32;14.07;;;12.88;;
45842;SDS011;31563;51.744;8.252;2023-08-20T00:20:01;13.70;;;12.32;;
45842;SDS011;31563;51.744;8.252;2023-08-20T00:22:35;13.18;;;12.07;;
45842;SDS011;31563;51.744;8.252;2023-08-20T00:25:04;13.10;;;11.80;;
45842;SDS011;31563;51.744;8.252;2023-08-20T00:27:33;12.07;;;11.00;;
45842;SDS011;31563;51.744;8.252;2023-08-20T00:30:02;13.18;;;11.98;;
45842;SDS011;31563;51.744;8.252;2023-08-20T00:32:31;11.90;;;10.82;;
45842;SDS011;31563;51.744;8.252;2023-08-20T00:34:59;11.65;;;10.60;;
45842;SDS011;31563;51.744;8.252;2023-08-20T00:37:29;11.68;;;10.45;;
45842;SDS011;31563;51.744;8.252;2023-08-20T00:39:58;11.32;;;10.32;;
45842;SDS011;31563;51.744;8.252;2023-08-20T00:42:26;11.15;;;10.25;;
45842;SDS011;31563;51.744;8.252;2023-08-20T00:44:54;10.13;;;9.23;;
45842;SDS011;31563;51.744;8.252;2023-08-20T00:47:22;11.50;;;9.60;;
45842;SDS011;31563;51.744;8.252;2023-08-20T00:49:51;11.00;;;10.02;;
45842;SDS011;31563;51.744;8.252;2023-08-20T00:52:20;10.57;;;9.68;;
45842;SDS011;31563;51.744;8.252;2023-08-20T00:54:49;11.63;;;10.63;;
45842;SDS011;31563;51.744;8.252;2023-08-20T00:57:18;11.75;;;10.68;;
45842;SDS011;31563;51.744;8.252;2023-08-20T00:59:46;10.88;;;9.98;;
45842;SDS011;31563;51.744;8.252;2023-08-20T01:02:15;11.40;;;10.32;;
45842;SDS011;31563;51.744;8.252;2023-08-20T01:04:44;10.77;;;9.73;;
45842;SDS011;31563;51.744;8.252;2023-08-20T01:07:21;10.60;;;9.60;;
45842;SDS011;31563;51.744;8.252;2023-08-20T01:09:56;10.40;;;9.40;;
45842;SDS011;31563;51.744;8.252;2023-08-20T01:12:31;10.30;;;9.45;;
45842;SDS011;31563;51.744;8.252;2023-08-20T01:15:01;11.48;;;10.38;;
45842;SDS011;31563;51.744;8.252;2023-08-20T01:17:29;10.90;;;10.00;;
45842;SDS011;31563;51.744;8.252;2023-08-20T01:19:57;10.82;;;9.85;;
45842;SDS011;31563;51.744;8.252;2023-08-20T01:22:34;10.43;;;9.52;;
45842;SDS011;31563;51.744;8.252;2023-08-20T01:25:18;10.95;;;9.88;;
45842;SDS011;31563;51.744;8.252;2023-08-20T01:27:57;11.05;;;10.00;;
45842;SDS011;31563;51.744;8.252;2023-08-20T01:30:31;11.15;;;10.30;;
45842;SDS011;31563;51.744;8.252;2023-08-20T01:33:00;10.52;;;9.63;;
45842;SDS011;31563;51.744;8.252;2023-08-20T01:35:28;12.00;;;10.87;;
45842;SDS011;31563;51.744;8.252;2023-08-20T01:37:56;11.13;;;10.23;;
45842;SDS011;31563;51.744;8.252;2023-08-20T01:40:24;10.77;;;9.88;;
45842;SDS011;31563;51.744;8.252;2023-08-20T01:42:52;11.65;;;10.63;;
45842;SDS011;31563;51.744;8.252;2023-08-20T01:45:20;10.38;;;9.48;;
45842;SDS011;31563;51.744;8.252;2023-08-20T01:47:50;11.52;;;10.43;;
45842;SDS011;31563;51.744;8.252;2023-08-20T01:50:18;12.45;;;11.32;;
45842;SDS011;31563;51.744;8.252;2023-08-20T01:52:46;11.57;;;10.57;;
45842;SDS011;31563;51.744;8.252;2023-08-20T01:55:14;12.07;;;10.90;;
45842;SDS011;31563;51.744;8.252;2023-08-20T01:57:42;11.23;;;10.23;;
45842;SDS011;31563;51.744;8.252;2023-08-20T02:00:10;12.30;;;11.10;;
45842;SDS011;31563;51.744;8.252;2023-08-20T02:02:39;11.02;;;10.02;;
45842;SDS011;31563;51.744;8.252;2023-08-20T02:05:08;11.55;;;10.55;;
45842;SDS011;31563;51.744;8.252;2023-08-20T02:07:37;10.93;;;9.93;;
45842;SDS011;31563;51.744;8.252;2023-08-20T02:10:05;10.77;;;9.88;;
45842;SDS011;31563;51.744;8.252;2023-08-20T02:12:35;11.30;;;10.20;;
45842;SDS011;31563;51.744;8.252;2023-08-20T02:15:03;10.95;;;10.05;;
45842;SDS011;31563;51.744;8.252;2023-08-20T02:17:31;10.52;;;9.60;;
45842;SDS011;31563;51.744;8.252;2023-08-20T02:20:02;10.32;;;9.43;;
45842;SDS011;31563;51.744;8.252;2023-08-20T02:22:33;11.63;;;9.90;;
45842;SDS011;31563;51.744;8.252;2023-08-20T02:25:01;11.30;;;10.20;;
45842;SDS011;31563;51.744;8.252;2023-08-20T02:27:28;11.15;;;10.18;;
45842;SDS011;31563;51.744;8.252;2023-08-20T02:29:56;11.90;;;10.70;;
45842;SDS011;31563;51.744;8.252;2023-08-20T02:32:24;10.70;;;9.70;;
45842;SDS011;31563;51.744;8.252;2023-08-20T02:34:52;12.00;;;10.80;;
45842;SDS011;31563;51.744;8.252;2023-08-20T02:37:21;11.10;;;10.10;;
45842;SDS011;31563;51.744;8.252;2023-08-20T02:39:50;11.90;;;10.68;;
45842;SDS011;31563;51.744;8.252;2023-08-20T02:42:18;11.02;;;10.02;;
45842;SDS011;31563;51.744;8.252;2023-08-20T02:44:46;10.95;;;9.85;;
45842;SDS011;31563;51.744;8.252;2023-08-20T02:47:14;10.95;;;9.95;;
45842;SDS011;31563;51.744;8.252;2023-08-20T02:49:42;11.85;;;10.75;;
45842;SDS011;31563;51.744;8.252;2023-08-20T02:52:10;11.18;;;10.07;;
45842;SDS011;31563;51.744;8.252;2023-08-20T02:54:38;11.18;;;10.07;;
45842;SDS011;31563;51.744;8.252;2023-08-20T02:57:07;11.07;;;10.07;;
45842;SDS011;31563;51.744;8.252;2023-08-20T02:59:35;11.15;;;10.15;;
45842;SDS011;31563;51.744;8.252;2023-08-20T03:02:03;11.88;;;10.65;;
45842;SDS011;31563;51.744;8.252;2023-08-20T03:04:31;11.02;;;10.00;;
45842;SDS011;31563;51.744;8.252;2023-08-20T03:06:58;10.70;;;9.70;;
45842;SDS011;31563;51.744;8.252;2023-08-20T03:09:26;10.75;;;9.75;;
45842;SDS011;31563;51.744;8.252;2023-08-20T03:11:54;10.77;;;9.70;;
45842;SDS011;31563;51.744;8.252;2023-08-20T03:14:23;10.10;;;9.10;;
45842;SDS011;31563;51.744;8.252;2023-08-20T03:16:54;10.35;;;9.45;;
45842;SDS011;31563;51.744;8.252;2023-08-20T03:19:22;10.43;;;9.50;;
45842;SDS011;31563;51.744;8.252;2023-08-20T03:21:49;10.20;;;9.20;;
45842;SDS011;31563;51.744;8.252;2023-08-20T03:24:17;10.30;;;9.30;;
45842;SDS011;31563;51.744;8.252;2023-08-20T03:26:45;9.95;;;9.13;;
45842;SDS011;31563;51.744;8.252;2023-08-20T03:29:13;9.80;;;8.77;;
45842;SDS011;31563;51.744;8.252;2023-08-20T03:31:43;9.48;;;8.60;;
45842;SDS011;31563;51.744;8.252;2023-08-20T03:34:11;9.73;;;8.77;;
45842;SDS011;31563;51.744;8.252;2023-08-20T03:36:38;9.90;;;8.90;;
45842;SDS011;31563;51.744;8.252;2023-08-20T03:39:06;10.35;;;9.35;;
45842;SDS011;31563;51.744;8.252;2023-08-20T03:41:34;9.82;;;9.00;;
45842;SDS011;31563;51.744;8.252;2023-08-20T03:44:03;9.82;;;8.82;;
45842;SDS011;31563;51.744;8.252;2023-08-20T03:46:31;10.98;;;9.52;;
45842;SDS011;31563;51.744;8.252;2023-08-20T03:49:00;9.63;;;8.32;;
45842;SDS011;31563;51.744;8.252;2023-08-20T03:51:29;9.95;;;9.05;;
45842;SDS011;31563;51.744;8.252;2023-08-20T03:53:57;11.88;;;9.52;;
45842;SDS011;31563;51.744;8.252;2023-08-20T03:56:24;9.35;;;8.38;;
45842;SDS011;31563;51.744;8.252;2023-08-20T03:58:52;10.20;;;8.88;;
45842;SDS011;31563;51.744;8.252;2023-08-20T04:01:21;10.63;;;9.73;;
45842;SDS011;31563;51.744;8.252;2023-08-20T04:03:49;11.15;;;10.05;;
45842;SDS011;31563;51.744;8.252;2023-08-20T04:06:18;8.95;;;8.13;;
45842;SDS011;31563;51.744;8.252;2023-08-20T04:08:46;9.50;;;8.40;;
45842;SDS011;31563;51.744;8.252;2023-08-20T04:11:15;10.02;;;9.02;;
45842;SDS011;31563;51.744;8.252;2023-08-20T04:13:42;9.00;;;8.20;;
45842;SDS011;31563;51.744;8.252;2023-08-20T04:16:12;9.20;;;8.37;;
45842;SDS011;31563;51.744;8.252;2023-08-20T04:18:40;8.93;;;8.20;;
45842;SDS011;31563;51.744;8.252;2023-08-20T04:21:07;10.60;;;8.35;;
45842;SDS011;31563;51.744;8.252;2023-08-20T04:23:37;8.60;;;7.80;;
45842;SDS011;31563;51.744;8.252;2023-08-20T04:26:05;9.57;;;8.68;;
45842;SDS011;31563;51.744;8.252;2023-08-20T04:28:33;9.20;;;8.30;;
45842;SDS011;31563;51.744;8.252;2023-08-20T04:31:01;8.57;;;7.80;;
45842;SDS011;31563;51.744;8.252;2023-08-20T04:33:29;8.73;;;7.93;;
45842;SDS011;31563;51.744;8.252;2023-08-20T04:35:57;9.00;;;8.10;;
45842;SDS011;31563;51.744;8.252;2023-08-20T04:38:25;8.55;;;7.75;;
45842;SDS011;31563;51.744;8.252;2023-08-20T04:40:55;7.75;;;6.97;;
45842;SDS011;31563;51.744;8.252;2023-08-20T04:43:23;8.40;;;7.53;;
45842;SDS011;31563;51.744;8.252;2023-08-20T04:45:50;8.20;;;7.50;;
45842;SDS011;31563;51.744;8.252;2023-08-20T04:48:18;8.48;;;7.72;;
45842;SDS011;31563;51.744;8.252;2023-08-20T04:50:47;8.65;;;7.70;;
45842;SDS011;31563;51.744;8.252;2023-08-20T04:53:14;7.88;;;7.00;;
45842;SDS011;31563;51.744;8.252;2023-08-20T04:55:42;8.05;;;7.32;;
45842;SDS011;31563;51.744;8.252;2023-08-20T04:58:12;7.80;;;7.00;;
45842;SDS011;31563;51.744;8.252;2023-08-20T05:00:39;7.45;;;6.75;;
45842;SDS011;31563;51.744;8.252;2023-08-20T05:03:07;7.50;;;6.57;;
45842;SDS011;31563;51.744;8.252;2023-08-20T05:05:35;7.75;;;6.82;;
45842;SDS011;31563;51.744;8.252;2023-08-20T05:08:03;7.78;;;7.07;;
45842;SDS011;31563;51.744;8.252;2023-08-20T05:10:32;7.70;;;6.95;;
45842;SDS011;31563;51.744;8.252;2023-08-20T05:12:59;6.15;;;5.65;;
45842;SDS011;31563;51.744;8.252;2023-08-20T05:15:29;8.90;;;8.07;;
45842;SDS011;31563;51.744;8.252;2023-08-20T05:17:57;10.75;;;9.75;;
45842;SDS011;31563;51.744;8.252;2023-08-20T05:20:25;10.45;;;8.68;;
45842;SDS011;31563;51.744;8.252;2023-08-20T05:22:52;9.57;;;8.65;;
45842;SDS011;31563;51.744;8.252;2023-08-20T05:25:20;11.20;;;9.40;;
45842;SDS011;31563;51.744;8.252;2023-08-20T05:27:48;11.65;;;9.38;;
45842;SDS011;31563;51.744;8.252;2023-08-20T05:30:16;9.57;;;8.73;;
45842;SDS011;31563;51.744;8.252;2023-08-20T05:32:46;10.50;;;9.00;;
45842;SDS011;31563;51.744;8.252;2023-08-20T05:35:17;11.52;;;9.10;;
45842;SDS011;31563;51.744;8.252;2023-08-20T05:37:45;11.05;;;9.63;;
45842;SDS011;31563;51.744;8.252;2023-08-20T05:40:13;10.68;;;9.57;;
45842;SDS011;31563;51.744;8.252;2023-08-20T05:42:40;10.95;;;9.70;;
45842;SDS011;31563;51.744;8.252;2023-08-20T05:45:08;11.30;;;9.98;;
45842;SDS011;31563;51.744;8.252;2023-08-20T05:47:38;11.10;;;9.85;;
45842;SDS011;31563;51.744;8.252;2023-08-20T05:50:08;11.02;;;9.10;;
45842;SDS011;31563;51.744;8.252;2023-08-20T05:52:36;14.05;;;11.27;;
45842;SDS011;31563;51.744;8.252;2023-08-20T05:55:04;12.63;;;9.73;;
45842;SDS011;31563;51.744;8.252;2023-08-20T05:57:33;11.73;;;9.13;;
45842;SDS011;31563;51.744;8.252;2023-08-20T06:00:03;12.77;;;9.88;;
45842;SDS011;31563;51.744;8.252;2023-08-20T06:02:31;10.57;;;9.63;;
45842;SDS011;31563;51.744;8.252;2023-08-20T06:05:00;13.05;;;9.90;;
45842;SDS011;31563;51.744;8.252;2023-08-20T06:07:29;13.02;;;11.18;;
45842;SDS011;31563;51.744;8.252;2023-08-20T06:09:57;13.57;;;11.80;;
45842;SDS011;31563;51.744;8.252;2023-08-20T06:12:25;12.40;;;11.02;;
45842;SDS011;31563;51.744;8.252;2023-08-20T06:14:53;14.27;;;12.20;;
45842;SDS011;31563;51.744;8.252;2023-08-20T06:17:21;11.43;;;10.23;;
45842;SDS011;31563;51.744;8.252;2023-08-20T06:19:49;14.88;;;10.57;;
45842;SDS011;31563;51.744;8.252;2023-08-20T06:22:17;12.73;;;11.40;;
45842;SDS011;31563;51.744;8.252;2023-08-20T06:24:46;12.90;;;11.57;;
45842;SDS011;31563;51.744;8.252;2023-08-20T06:27:14;17.40;;;15.57;;
45842;SDS011;31563;51.744;8.252;2023-08-20T06:29:42;18.33;;;16.52;;
45842;SDS011;31563;51.744;8.252;2023-08-20T06:32:10;19.75;;;17.75;;
45842;SDS011;31563;51.744;8.252;2023-08-20T06:34:38;21.42;;;19.17;;
45842;SDS011;31563;51.744;8.252;2023-08-20T06:37:06;19.08;;;16.35;;
45842;SDS011;31563;51.744;8.252;2023-08-20T06:39:33;20.23;;;17.90;;
45842;SDS011;31563;51.744;8.252;2023-08-20T06:42:03;20.23;;;17.45;;
45842;SDS011;31563;51.744;8.252;2023-08-20T06:44:31;20.05;;;17.75;;
45842;SDS011;31563;51.744;8.252;2023-08-20T06:46:59;20.25;;;17.33;;
45842;SDS011;31563;51.744;8.252;2023-08-20T06:49:26;23.30;;;19.90;;
45842;SDS011;31563;51.744;8.252;2023-08-20T06:51:54;24.67;;;22.08;;
45842;SDS011;31563;51.744;8.252;2023-08-20T06:54:22;28.17;;;24.75;;
45842;SDS011;31563;51.744;8.252;2023-08-20T06:56:50;27.25;;;24.33;;
45842;SDS011;31563;51.744;8.252;2023-08-20T06:59:19;29.50;;;26.33;;
45842;SDS011;31563;51.744;8.252;2023-08-20T07:01:47;29.42;;;26.42;;
45842;SDS011;31563;51.744;8.252;2023-08-20T07:04:15;28.48;;;25.48;;
45842;SDS011;31563;51.744;8.252;2023-08-20T07:06:43;30.40;;;27.13;;
45842;SDS011;31563;51.744;8.252;2023-08-20T07:09:11;30.13;;;27.10;;
45842;SDS011;31563;51.744;8.252;2023-08-20T07:11:39;32.83;;;29.63;;
45842;SDS011;31563;51.744;8.252;2023-08-20T07:14:07;35.13;;;31.60;;
45842;SDS011;31563;51.744;8.252;2023-08-20T07:16:36;35.28;;;31.58;;
45842;SDS011;31563;51.744;8.252;2023-08-20T07:19:03;35.72;;;32.17;;
45842;SDS011;31563;51.744;8.252;2023-08-20T07:21:31;33.58;;;30.25;;
45842;SDS011;31563;51.744;8.252;2023-08-20T07:24:00;33.67;;;30.20;;
45842;SDS011;31563;51.744;8.252;2023-08-20T07:26:28;32.83;;;29.50;;
45842;SDS011;31563;51.744;8.252;2023-08-20T07:28:57;29.23;;;26.35;;
45842;SDS011;31563;51.744;8.252;2023-08-20T07:31:26;28.93;;;26.03;;
45842;SDS011;31563;51.744;8.252;2023-08-20T07:33:57;23.83;;;21.63;;
45842;SDS011;31563;51.744;8.252;2023-08-20T07:36:31;25.20;;;22.75;;
45842;SDS011;31563;51.744;8.252;2023-08-20T07:38:59;24.42;;;22.02;;
45842;SDS011;31563;51.744;8.252;2023-08-20T07:41:28;21.57;;;19.57;;
45842;SDS011;31563;51.744;8.252;2023-08-20T07:43:57;22.38;;;19.95;;
45842;SDS011;31563;51.744;8.252;2023-08-20T07:46:24;21.23;;;19.02;;
45842;SDS011;31563;51.744;8.252;2023-08-20T07:48:52;20.23;;;18.17;;
45842;SDS011;31563;51.744;8.252;2023-08-20T07:51:22;19.17;;;17.27;;
45842;SDS011;31563;51.744;8.252;2023-08-20T07:53:49;18.77;;;17.00;;
45842;SDS011;31563;51.744;8.252;2023-08-20T07:56:17;19.08;;;17.35;;
45842;SDS011;31563;51.744;8.252;2023-08-20T07:58:45;32.40;;;29.10;;
45842;SDS011;31563;51.744;8.252;2023-08-20T08:01:13;35.17;;;31.58;;
45842;SDS011;31563;51.744;8.252;2023-08-20T08:03:41;37.33;;;33.55;;
45842;SDS011;31563;51.744;8.252;2023-08-20T08:06:09;35.25;;;31.60;;
45842;SDS011;31563;51.744;8.252;2023-08-20T08:08:42;29.73;;;26.73;;
45842;SDS011;31563;51.744;8.252;2023-08-20T08:11:10;35.38;;;31.75;;
45842;SDS011;31563;51.744;8.252;2023-08-20T08:13:38;36.75;;;32.88;;
45842;SDS011;31563;51.744;8.252;2023-08-20T08:16:06;33.42;;;30.02;;
45842;SDS011;31563;51.744;8.252;2023-08-20T08:18:34;35.50;;;31.98;;
45842;SDS011;31563;51.744;8.252;2023-08-20T08:21:02;35.53;;;31.92;;
45842;SDS011;31563;51.744;8.252;2023-08-20T08:23:30;30.98;;;27.65;;
45842;SDS011;31563;51.744;8.252;2023-08-20T08:25:59;27.90;;;25.23;;
45842;SDS011;31563;51.744;8.252;2023-08-20T08:28:27;30.27;;;27.35;;
45842;SDS011;31563;51.744;8.252;2023-08-20T08:30:55;34.80;;;31.30;;
45842;SDS011;31563;51.744;8.252;2023-08-20T08:33:23;31.83;;;28.73;;
45842;SDS011;31563;51.744;8.252;2023-08-20T08:35:51;32.38;;;29.20;;
45842;SDS011;31563;51.744;8.252;2023-08-20T08:38:19;31.13;;;28.02;;
45842;SDS011;31563;51.744;8.252;2023-08-20T08:40:48;29.43;;;26.47;;
45842;SDS011;31563;51.744;8.252;2023-08-20T08:43:18;31.70;;;28.50;;
45842;SDS011;31563;51.744;8.252;2023-08-20T08:45:46;29.63;;;26.65;;
45842;SDS011;31563;51.744;8.252;2023-08-20T08:48:15;28.20;;;25.40;;
45842;SDS011;31563;51.744;8.252;2023-08-20T08:50:43;29.45;;;26.70;;
45842;SDS011;31563;51.744;8.252;2023-08-20T08:53:11;28.00;;;25.40;;
45842;SDS011;31563;51.744;8.252;2023-08-20T08:55:40;29.90;;;27.00;;
45842;SDS011;31563;51.744;8.252;2023-08-20T08:58:09;27.23;;;24.63;;
45842;SDS011;31563;51.744;8.252;2023-08-20T09:00:38;25.63;;;23.10;;
45842;SDS011;31563;51.744;8.252;2023-08-20T09:03:07;22.73;;;20.63;;
45842;SDS011;31563;51.744;8.252;2023-08-20T09:05:45;24.02;;;21.75;;
45842;SDS011;31563;51.744;8.252;2023-08-20T09:08:18;20.90;;;18.73;;
45842;SDS011;31563;51.744;8.252;2023-08-20T09:10:49;20.88;;;18.88;;
45842;SDS011;31563;51.744;8.252;2023-08-20T09:13:19;21.85;;;19.80;;
45842;SDS011;31563;51.744;8.252;2023-08-20T09:15:52;21.88;;;19.88;;
45842;SDS011;31563;51.744;8.252;2023-08-20T09:18:21;23.58;;;21.33;;
45842;SDS011;31563;51.744;8.252;2023-08-20T09:20:49;19.65;;;17.85;;
45842;SDS011;31563;51.744;8.252;2023-08-20T09:23:17;19.63;;;17.63;;
45842;SDS011;31563;51.744;8.252;2023-08-20T09:25:45;18.88;;;17.17;;
45842;SDS011;31563;51.744;8.252;2023-08-20T09:28:13;18.02;;;16.33;;
45842;SDS011;31563;51.744;8.252;2023-08-20T09:30:55;17.58;;;16.08;;
45842;SDS011;31563;51.744;8.252;2023-08-20T09:33:23;16.58;;;15.15;;
45842;SDS011;31563;51.744;8.252;2023-08-20T09:35:52;19.90;;;18.15;;
45842;SDS011;31563;51.744;8.252;2023-08-20T09:38:21;16.15;;;14.70;;
45842;SDS011;31563;51.744;8.252;2023-08-20T09:40:50;16.90;;;15.40;;
45842;SDS011;31563;51.744;8.252;2023-08-20T09:43:23;17.02;;;15.63;;
45842;SDS011;31563;51.744;8.252;2023-08-20T09:45:55;15.27;;;13.90;;
45842;SDS011;31563;51.744;8.252;2023-08-20T09:48:25;15.55;;;14.10;;
45842;SDS011;31563;51.744;8.252;2023-08-20T09:50:56;16.10;;;14.70;;
45842;SDS011;31563;51.744;8.252;2023-08-20T09:53:30;15.60;;;14.30;;
45842;SDS011;31563;51.744;8.252;2023-08-20T09:56:03;12.95;;;11.85;;
45842;SDS011;31563;51.744;8.252;2023-08-20T10:01:11;13.75;;;12.55;;
45842;SDS011;31563;51.744;8.252;2023-08-20T10:03:40;12.13;;;11.13;;
45842;SDS011;31563;51.744;8.252;2023-08-20T10:06:11;11.77;;;10.75;;
45842;SDS011;31563;51.744;8.252;2023-08-20T10:08:39;11.88;;;10.95;;
45842;SDS011;31563;51.744;8.252;2023-08-20T10:11:06;12.30;;;11.27;;
45842;SDS011;31563;51.744;8.252;2023-08-20T10:13:35;12.35;;;11.35;;
45842;SDS011;31563;51.744;8.252;2023-08-20T10:16:04;10.50;;;9.60;;
45842;SDS011;31563;51.744;8.252;2023-08-20T10:18:35;10.80;;;9.80;;
45842;SDS011;31563;51.744;8.252;2023-08-20T10:21:04;9.88;;;9.05;;
45842;SDS011;31563;51.744;8.252;2023-08-20T10:23:34;10.68;;;9.68;;
45842;SDS011;31563;51.744;8.252;2023-08-20T10:26:08;10.10;;;9.20;;
45842;SDS011;31563;51.744;8.252;2023-08-20T10:28:37;10.50;;;9.70;;
45842;SDS011;31563;51.744;8.252;2023-08-20T10:31:07;10.75;;;9.90;;
45842;SDS011;31563;51.744;8.252;2023-08-20T10:33:47;11.23;;;10.25;;
45842;SDS011;31563;51.744;8.252;2023-08-20T10:36:17;10.02;;;9.23;;
45842;SDS011;31563;51.744;8.252;2023-08-20T10:38:49;10.60;;;9.57;;
45842;SDS011;31563;51.744;8.252;2023-08-20T10:41:24;9.60;;;8.80;;
45842;SDS011;31563;51.744;8.252;2023-08-20T10:43:52;9.63;;;8.73;;
45842;SDS011;31563;51.744;8.252;2023-08-20T10:46:21;9.77;;;8.95;;
45842;SDS011;31563;51.744;8.252;2023-08-20T10:48:52;9.25;;;8.43;;
45842;SDS011;31563;51.744;8.252;2023-08-20T10:51:24;9.50;;;8.55;;
45842;SDS011;31563;51.744;8.252;2023-08-20T10:54:02;9.55;;;8.65;;
45842;SDS011;31563;51.744;8.252;2023-08-20T10:56:38;9.25;;;8.55;;
45842;SDS011;31563;51.744;8.252;2023-08-20T10:59:08;9.15;;;8.32;;
45842;SDS011;31563;51.744;8.252;2023-08-20T11:01:36;8.85;;;8.15;;
45842;SDS011;31563;51.744;8.252;2023-08-20T11:04:07;8.32;;;7.65;;
45842;SDS011;31563;51.744;8.252;2023-08-20T11:06:36;12.05;;;7.70;;
45842;SDS011;31563;51.744;8.252;2023-08-20T11:09:05;8.27;;;7.25;;
45842;SDS011;31563;51.744;8.252;2023-08-20T11:11:33;7.80;;;7.13;;
45842;SDS011;31563;51.744;8.252;2023-08-20T11:14:04;8.00;;;7.30;;
45842;SDS011;31563;51.744;8.252;2023-08-20T11:16:34;7.85;;;7.25;;
45842;SDS011;31563;51.744;8.252;2023-08-20T11:19:03;7.50;;;6.88;;
45842;SDS011;31563;51.744;8.252;2023-08-20T11:21:36;8.00;;;7.28;;
45842;SDS011;31563;51.744;8.252;2023-08-20T11:24:06;7.35;;;6.63;;
45842;SDS011;31563;51.744;8.252;2023-08-20T11:26:35;6.87;;;6.37;;
45842;SDS011;31563;51.744;8.252;2023-08-20T11:29:05;8.07;;;7.37;;
45842;SDS011;31563;51.744;8.252;2023-08-20T11:31:33;7.30;;;6.60;;
45842;SDS011;31563;51.744;8.252;2023-08-20T11:34:02;7.38;;;6.68;;
45842;SDS011;31563;51.744;8.252;2023-08-20T11:36:32;6.80;;;6.20;;
45842;SDS011;31563;51.744;8.252;2023-08-20T11:39:01;8.27;;;6.60;;
45842;SDS011;31563;51.744;8.252;2023-08-20T11:41:29;7.40;;;6.70;;
45842;SDS011;31563;51.744;8.252;2023-08-20T11:43:57;8.20;;;7.50;;
45842;SDS011;31563;51.744;8.252;2023-08-20T11:46:25;8.82;;;7.28;;
45842;SDS011;31563;51.744;8.252;2023-08-20T11:48:59;8.18;;;7.32;;
45842;SDS011;31563;51.744;8.252;2023-08-20T11:51:29;7.72;;;6.97;;
45842;SDS011;31563;51.744;8.252;2023-08-20T11:53:57;6.55;;;5.97;;
45842;SDS011;31563;51.744;8.252;2023-08-20T11:56:27;7.43;;;6.72;;
45842;SDS011;31563;51.744;8.252;2023-08-20T11:58:58;7.50;;;6.13;;
45842;SDS011;31563;51.744;8.252;2023-08-20T12:01:29;7.00;;;6.38;;
45842;SDS011;31563;51.744;8.252;2023-08-20T12:04:01;7.00;;;6.03;;
45842;SDS011;31563;51.744;8.252;2023-08-20T12:06:31;5.97;;;5.47;;
45842;SDS011;31563;51.744;8.252;2023-08-20T12:09:01;6.80;;;5.38;;
45842;SDS011;31563;51.744;8.252;2023-08-20T12:11:32;6.28;;;5.68;;
45842;SDS011;31563;51.744;8.252;2023-08-20T12:14:00;6.15;;;5.63;;
45842;SDS011;31563;51.744;8.252;2023-08-20T12:16:29;6.38;;;5.78;;
45842;SDS011;31563;51.744;8.252;2023-08-20T12:18:57;6.00;;;5.40;;
45842;SDS011;31563;51.744;8.252;2023-08-20T12:21:25;5.93;;;5.28;;
45842;SDS011;31563;51.744;8.252;2023-08-20T12:23:53;6.15;;;5.63;;
45842;SDS011;31563;51.744;8.252;2023-08-20T12:26:20;5.65;;;5.13;;
45842;SDS011;31563;51.744;8.252;2023-08-20T12:28:49;5.63;;;5.13;;
45842;SDS011;31563;51.744;8.252;2023-08-20T12:31:17;5.68;;;5.18;;
45842;SDS011;31563;51.744;8.252;2023-08-20T12:33:45;8.30;;;4.78;;
45842;SDS011;31563;51.744;8.252;2023-08-20T12:36:13;4.90;;;4.40;;
45842;SDS011;31563;51.744;8.252;2023-08-20T12:38:41;5.47;;;4.95;;
45842;SDS011;31563;51.744;8.252;2023-08-20T12:41:10;6.15;;;5.55;;
45842;SDS011;31563;51.744;8.252;2023-08-20T12:43:38;6.00;;;5.13;;
45842;SDS011;31563;51.744;8.252;2023-08-20T12:46:07;5.65;;;5.25;;
45842;SDS011;31563;51.744;8.252;2023-08-20T12:48:35;5.05;;;4.60;;
45842;SDS011;31563;51.744;8.252;2023-08-20T12:51:03;5.40;;;4.90;;
45842;SDS011;31563;51.744;8.252;2023-08-20T12:53:31;4.80;;;4.38;;
45842;SDS011;31563;51.744;8.252;2023-08-20T12:55:59;4.97;;;4.47;;
45842;SDS011;31563;51.744;8.252;2023-08-20T12:58:27;5.20;;;4.72;;
45842;SDS011;31563;51.744;8.252;2023-08-20T13:00:55;5.38;;;4.47;;
45842;SDS011;31563;51.744;8.252;2023-08-20T13:03:24;5.82;;;4.30;;
45842;SDS011;31563;51.744;8.252;2023-08-20T13:05:54;5.07;;;4.30;;
45842;SDS011;31563;51.744;8.252;2023-08-20T13:08:23;5.13;;;4.63;;
45842;SDS011;31563;51.744;8.252;2023-08-20T13:10:52;4.33;;;3.93;;
45842;SDS011;31563;51.744;8.252;2023-08-20T13:13:22;4.40;;;4.00;;
45842;SDS011;31563;51.744;8.252;2023-08-20T13:15:51;4.47;;;4.03;;
45842;SDS011;31563;51.744;8.252;2023-08-20T13:18:20;4.57;;;4.18;;
45842;SDS011;31563;51.744;8.252;2023-08-20T13:20:52;5.72;;;4.28;;
45842;SDS011;31563;51.744;8.252;2023-08-20T13:23:20;5.20;;;4.38;;
45842;SDS011;31563;51.744;8.252;2023-08-20T13:25:48;4.90;;;4.43;;
45842;SDS011;31563;51.744;8.252;2023-08-20T13:28:16;4.38;;;4.07;;
45842;SDS011;31563;51.744;8.252;2023-08-20T13:30:44;4.70;;;4.10;;
45842;SDS011;31563;51.744;8.252;2023-08-20T13:33:12;4.72;;;3.80;;
45842;SDS011;31563;51.744;8.252;2023-08-20T13:38:10;6.67;;;4.27;;
45842;SDS011;31563;51.744;8.252;2023-08-20T13:43:06;5.10;;;4.07;;
45842;SDS011;31563;51.744;8.252;2023-08-20T13:45:35;4.25;;;3.85;;
45842;SDS011;31563;51.744;8.252;2023-08-20T13:48:03;4.40;;;3.95;;
45842;SDS011;31563;51.744;8.252;2023-08-20T13:50:32;4.68;;;4.20;;
45842;SDS011;31563;51.744;8.252;2023-08-20T13:53:00;4.53;;;4.13;;
45842;SDS011;31563;51.744;8.252;2023-08-20T13:55:30;5.25;;;4.22;;
45842;SDS011;31563;51.744;8.252;2023-08-20T13:57:58;4.63;;;4.22;;
45842;SDS011;31563;51.744;8.252;2023-08-20T14:00:26;4.53;;;4.20;;
45842;SDS011;31563;51.744;8.252;2023-08-20T14:02:54;4.53;;;4.13;;
45842;SDS011;31563;51.744;8.252;2023-08-20T14:05:22;4.35;;;3.90;;
45842;SDS011;31563;51.744;8.252;2023-08-20T14:07:50;6.25;;;4.45;;
45842;SDS011;31563;51.744;8.252;2023-08-20T14:10:18;4.78;;;4.30;;
45842;SDS011;31563;51.744;8.252;2023-08-20T14:12:47;4.85;;;3.90;;
45842;SDS011;31563;51.744;8.252;2023-08-20T14:15:15;5.50;;;4.15;;
45842;SDS011;31563;51.744;8.252;2023-08-20T14:17:43;4.30;;;3.90;;
45842;SDS011;31563;51.744;8.252;2023-08-20T14:20:12;4.03;;;3.63;;
45842;SDS011;31563;51.744;8.252;2023-08-20T14:22:40;3.80;;;3.33;;
45842;SDS011;31563;51.744;8.252;2023-08-20T14:25:08;3.92;;;3.47;;
45842;SDS011;31563;51.744;8.252;2023-08-20T14:27:36;6.28;;;3.50;;
45842;SDS011;31563;51.744;8.252;2023-08-20T14:30:07;5.43;;;3.70;;
45842;SDS011;31563;51.744;8.252;2023-08-20T14:32:36;3.70;;;3.40;;
45842;SDS011;31563;51.744;8.252;2023-08-20T14:35:07;3.80;;;3.50;;
45842;SDS011;31563;51.744;8.252;2023-08-20T14:37:35;3.65;;;3.30;;
45842;SDS011;31563;51.744;8.252;2023-08-20T14:40:03;3.83;;;3.45;;
45842;SDS011;31563;51.744;8.252;2023-08-20T14:42:33;4.80;;;3.65;;
45842;SDS011;31563;51.744;8.252;2023-08-20T14:45:01;4.15;;;3.38;;
45842;SDS011;31563;51.744;8.252;2023-08-20T14:47:31;3.90;;;3.50;;
45842;SDS011;31563;51.744;8.252;2023-08-20T14:49:59;3.45;;;3.00;;
45842;SDS011;31563;51.744;8.252;2023-08-20T14:52:28;4.25;;;2.95;;